createdAt,value
2022-11-02T00:01:55.909Z,12.30
2022-11-02T00:04:25.275Z,13.00
2022-11-02T00:06:53.303Z,12.30
2022-11-02T00:09:21.219Z,12.30
2022-11-02T00:11:49.218Z,12.30
2022-11-02T00:14:17.189Z,12.30
2022-11-02T00:16:45.143Z,12.30
2022-11-02T00:19:13.197Z,12.30
2022-11-02T00:21:42.449Z,12.30
2022-11-02T00:24:11.939Z,12.30
2022-11-02T00:26:39.888Z,12.30
2022-11-02T00:29:08.292Z,12.30
2022-11-02T00:31:36.208Z,12.30
2022-11-02T00:34:04.160Z,12.40
2022-11-02T00:36:32.186Z,12.40
2022-11-02T00:39:01.575Z,12.50
2022-11-02T00:41:32.617Z,12.40
2022-11-02T00:44:00.701Z,12.40
2022-11-02T00:46:28.621Z,12.50
2022-11-02T00:48:56.586Z,12.50
2022-11-02T00:51:25.075Z,12.50
2022-11-02T00:53:53.074Z,12.50
2022-11-02T00:56:22.393Z,12.50
2022-11-02T00:58:50.409Z,12.50
2022-11-02T01:01:18.463Z,12.50
2022-11-02T01:03:46.483Z,12.50
2022-11-02T01:06:15.471Z,12.50
2022-11-02T01:08:43.560Z,12.50
2022-11-02T01:11:15.810Z,12.50
2022-11-02T01:13:46.781Z,12.40
2022-11-02T01:16:15.461Z,12.40
2022-11-02T01:18:43.646Z,12.40
2022-11-02T01:21:11.660Z,12.40
2022-11-02T01:23:39.869Z,12.30
2022-11-02T01:26:08.509Z,12.30
2022-11-02T01:28:36.689Z,12.30
2022-11-02T01:31:06.198Z,12.30
2022-11-02T01:33:34.190Z,12.30
2022-11-02T01:36:03.487Z,12.20
2022-11-02T01:38:31.749Z,12.20
2022-11-02T01:40:59.623Z,12.20
2022-11-02T01:43:28.702Z,12.20
2022-11-02T01:45:59.454Z,12.20
2022-11-02T01:48:32.044Z,12.20
2022-11-02T01:51:02.081Z,12.20
2022-11-02T01:53:30.375Z,12.20
2022-11-02T01:55:59.671Z,12.20
2022-11-02T01:58:27.842Z,12.20
2022-11-02T02:00:56.474Z,12.20
2022-11-02T02:03:24.640Z,12.20
2022-11-02T02:05:57.270Z,12.20
2022-11-02T02:08:26.372Z,12.20
2022-11-02T02:10:57.149Z,13.70
2022-11-02T02:13:25.357Z,12.20
2022-11-02T02:15:57.225Z,12.20
2022-11-02T02:18:27.171Z,12.20
2022-11-02T02:21:06.401Z,12.20
2022-11-02T02:23:48.903Z,12.20
2022-11-02T02:26:31.743Z,12.20
2022-11-02T02:29:02.420Z,12.20
2022-11-02T02:31:34.205Z,12.30
2022-11-02T02:34:08.633Z,12.30
2022-11-02T02:36:41.136Z,12.30
2022-11-02T02:39:12.787Z,12.30
2022-11-02T02:41:42.073Z,12.30
2022-11-02T02:44:13.053Z,12.40
2022-11-02T02:46:46.355Z,12.40
2022-11-02T02:49:18.230Z,12.40
2022-11-02T02:51:46.842Z,12.40
2022-11-02T02:54:16.365Z,12.40
2022-11-02T02:59:23.569Z,12.40
2022-11-02T03:01:51.827Z,12.40
2022-11-02T03:04:19.868Z,12.40
2022-11-02T03:06:49.671Z,12.50
2022-11-02T03:09:20.704Z,12.50
2022-11-02T03:11:52.419Z,12.80
2022-11-02T03:14:33.072Z,12.50
2022-11-02T03:17:06.146Z,12.60
2022-11-02T03:19:38.102Z,12.70
2022-11-02T03:22:10.073Z,12.60
2022-11-02T03:24:43.461Z,12.60
2022-11-02T03:27:15.775Z,12.60
2022-11-02T03:29:55.234Z,12.60
2022-11-02T03:32:26.245Z,12.60
2022-11-02T03:34:56.308Z,11.90
2022-11-02T03:37:26.374Z,12.60
2022-11-02T03:39:56.065Z,12.60
2022-11-02T03:42:29.001Z,12.60
2022-11-02T03:45:00.759Z,12.60
2022-11-02T03:47:31.173Z,12.60
2022-11-02T03:49:59.884Z,12.60
2022-11-02T03:52:30.404Z,12.50
2022-11-02T03:55:01.332Z,12.50
2022-11-02T03:57:33.633Z,12.50
2022-11-02T04:00:10.323Z,12.50
2022-11-02T04:02:39.199Z,12.50
2022-11-02T04:05:07.475Z,12.50
2022-11-02T04:07:51.122Z,12.50
2022-11-02T04:10:20.327Z,12.50
2022-11-02T04:13:06.016Z,12.40
2022-11-02T04:15:35.293Z,12.40
2022-11-02T04:18:20.777Z,12.40
2022-11-02T04:20:50.333Z,12.30
2022-11-02T04:23:35.993Z,12.30
2022-11-02T04:26:04.405Z,12.30
2022-11-02T04:28:32.375Z,12.30
2022-11-02T04:31:01.717Z,12.30
2022-11-02T04:33:34.706Z,12.30
2022-11-02T04:36:03.474Z,12.10
2022-11-02T04:38:42.733Z,12.10
2022-11-02T04:41:29.057Z,12.10
2022-11-02T04:43:57.207Z,12.00
2022-11-02T04:46:27.448Z,12.00
2022-11-02T04:48:55.390Z,11.90
2022-11-02T04:51:24.653Z,11.90
2022-11-02T04:53:53.309Z,11.80
2022-11-02T04:56:21.383Z,12.70
2022-11-02T04:58:49.723Z,11.70
2022-11-02T05:01:18.063Z,11.60
2022-11-02T05:03:49.022Z,11.60
2022-11-02T05:06:17.532Z,11.60
2022-11-02T05:08:45.625Z,11.60
2022-11-02T05:11:14.056Z,11.50
2022-11-02T05:13:42.493Z,10.40
2022-11-02T05:16:12.381Z,11.40
2022-11-02T05:18:40.469Z,11.40
2022-11-02T05:21:10.167Z,11.40
2022-11-02T05:23:38.438Z,11.30
2022-11-02T05:26:07.354Z,11.30
2022-11-02T05:28:35.308Z,11.50
2022-11-02T05:31:03.716Z,11.30
2022-11-02T05:33:32.405Z,11.20
2022-11-02T05:36:00.848Z,11.20
2022-11-02T05:38:30.375Z,11.20
2022-11-02T05:40:59.285Z,11.30
2022-11-02T05:43:27.422Z,11.20
2022-11-02T05:45:56.004Z,11.20
2022-11-02T05:48:24.574Z,11.20
2022-11-02T05:50:56.400Z,11.20
2022-11-02T05:53:24.530Z,11.20
2022-11-02T05:55:53.855Z,11.20
2022-11-02T05:58:21.789Z,11.20
2022-11-02T06:00:49.732Z,11.20
2022-11-02T06:03:18.102Z,11.20
2022-11-02T06:05:46.207Z,11.20
2022-11-02T06:08:14.156Z,11.20
2022-11-02T06:10:43.426Z,11.20
2022-11-02T06:13:12.658Z,11.20
2022-11-02T06:15:40.587Z,11.20
2022-11-02T06:18:08.831Z,11.20
2022-11-02T06:20:36.879Z,11.20
2022-11-02T06:23:05.061Z,11.20
2022-11-02T06:25:33.209Z,11.20
2022-11-02T06:28:02.938Z,11.20
2022-11-02T06:30:32.282Z,11.20
2022-11-02T06:33:02.939Z,11.20
2022-11-02T06:35:33.913Z,11.30
2022-11-02T06:38:05.154Z,11.30
2022-11-02T06:40:33.253Z,11.30
2022-11-02T06:43:15.897Z,11.40
2022-11-02T06:45:46.734Z,12.70
2022-11-02T06:48:15.058Z,11.40
2022-11-02T06:50:43.030Z,11.40
2022-11-02T06:53:11.299Z,11.40
2022-11-02T06:55:39.281Z,11.40
2022-11-02T06:58:07.256Z,11.50
2022-11-02T07:00:35.228Z,11.50
2022-11-02T07:03:05.806Z,11.50
2022-11-02T07:05:34.945Z,11.50
2022-11-02T07:08:02.879Z,11.60
2022-11-02T07:10:31.364Z,11.60
2022-11-02T07:12:59.500Z,11.70
2022-11-02T07:15:27.844Z,11.70
2022-11-02T07:17:55.903Z,11.70
2022-11-02T07:20:25.214Z,11.80
2022-11-02T07:22:54.640Z,11.80
2022-11-02T07:25:23.092Z,11.80
2022-11-02T07:27:51.141Z,11.90
2022-11-02T07:30:19.244Z,11.90
2022-11-02T07:32:47.517Z,11.90
2022-11-02T07:35:16.300Z,11.90
2022-11-02T07:37:45.910Z,11.90
2022-11-02T07:40:15.099Z,11.90
2022-11-02T07:42:46.828Z,11.90
2022-11-02T07:45:14.835Z,12.00
2022-11-02T07:47:43.786Z,12.00
2022-11-02T07:50:11.853Z,12.00
2022-11-02T07:52:45.968Z,12.00
2022-11-02T07:55:14.515Z,12.00
2022-11-02T07:57:43.673Z,12.00
2022-11-02T08:00:12.576Z,12.10
2022-11-02T08:02:40.648Z,12.10
2022-11-02T08:05:09.054Z,12.10
2022-11-02T08:07:36.977Z,12.10
2022-11-02T08:10:07.167Z,12.10
2022-11-02T08:12:35.099Z,12.20
2022-11-02T08:25:31.874Z,12.20
2022-11-02T08:28:01.216Z,12.30
2022-11-02T08:30:30.311Z,12.30
2022-11-02T08:33:03.649Z,12.30
2022-11-02T08:35:32.014Z,12.30
2022-11-02T08:38:00.833Z,12.30
2022-11-02T08:40:28.854Z,12.30
2022-11-02T08:42:58.581Z,12.30
2022-11-02T08:45:26.529Z,12.30
2022-11-02T08:47:54.610Z,12.40
2022-11-02T08:50:23.237Z,12.40
2022-11-02T08:52:51.184Z,12.40
2022-11-02T08:55:19.474Z,12.40
2022-11-02T08:57:47.455Z,12.40
2022-11-02T09:00:20.609Z,12.40
2022-11-02T09:02:59.314Z,12.40
2022-11-02T09:05:27.354Z,12.40
2022-11-02T09:07:55.870Z,12.40
2022-11-02T09:10:23.833Z,12.40
2022-11-02T09:12:51.727Z,12.40
2022-11-02T09:15:21.157Z,12.40
2022-11-02T09:17:49.246Z,12.40
2022-11-02T09:20:17.686Z,12.50
2022-11-02T09:22:45.979Z,12.50
2022-11-02T09:25:14.605Z,13.20
2022-11-02T09:27:42.743Z,12.50
2022-11-02T09:30:11.556Z,12.50
2022-11-02T09:32:40.875Z,12.50
2022-11-02T09:35:09.890Z,12.50
2022-11-02T09:37:38.129Z,12.50
2022-11-02T09:40:06.864Z,12.50
2022-11-02T09:42:38.899Z,12.40
2022-11-02T09:45:30.518Z,12.40
2022-11-02T09:48:24.914Z,12.50
2022-11-02T09:50:55.337Z,12.50
2022-11-02T09:53:31.072Z,12.60
2022-11-02T09:56:00.346Z,12.70
2022-11-02T09:58:31.288Z,12.70
2022-11-02T10:01:03.455Z,12.70
2022-11-02T10:03:38.177Z,12.70
2022-11-02T10:06:10.580Z,12.70
2022-11-02T10:08:43.916Z,12.70
2022-11-02T10:11:17.579Z,12.70
2022-11-02T10:13:50.063Z,12.70
2022-11-02T10:16:22.144Z,12.70
2022-11-02T10:18:53.128Z,12.70
2022-11-02T10:21:21.893Z,12.60
2022-11-02T10:23:51.833Z,12.70
2022-11-02T10:26:20.589Z,12.70
2022-11-02T10:28:49.892Z,12.70
2022-11-02T10:31:23.737Z,12.70
2022-11-02T10:33:57.072Z,12.70
2022-11-02T10:36:32.266Z,12.70
2022-11-02T10:39:04.232Z,12.80
2022-11-02T10:41:40.188Z,12.80
2022-11-02T10:44:24.075Z,12.80
2022-11-02T10:46:58.868Z,12.90
2022-11-02T10:49:37.886Z,13.00
2022-11-02T10:52:15.297Z,13.00
2022-11-02T10:54:43.318Z,13.10
2022-11-02T10:57:13.030Z,13.10
2022-11-02T10:59:41.249Z,13.10
2022-11-02T11:02:13.386Z,13.00
2022-11-02T11:04:43.617Z,13.10
2022-11-02T11:07:16.166Z,13.00
2022-11-02T11:09:49.506Z,13.00
2022-11-02T11:12:20.718Z,12.90
2022-11-02T11:20:36.439Z,12.80
2022-11-02T11:23:17.403Z,12.90
2022-11-02T11:25:54.105Z,12.90
2022-11-02T11:28:24.625Z,13.00
2022-11-02T11:31:03.041Z,13.20
2022-11-02T11:33:31.641Z,13.20
2022-11-02T11:36:01.154Z,13.30
2022-11-02T11:38:29.124Z,13.50
2022-11-02T11:40:58.679Z,13.60
2022-11-02T11:43:28.049Z,13.60
2022-11-02T11:46:01.927Z,13.70
2022-11-02T11:48:36.030Z,13.80
2022-11-02T11:51:05.857Z,13.80
2022-11-02T11:53:35.456Z,13.80
2022-11-02T11:56:03.395Z,13.70
2022-11-02T11:58:31.879Z,13.60
2022-11-02T12:01:09.405Z,13.60
2022-11-02T12:03:53.299Z,13.70
2022-11-02T12:06:26.100Z,13.70
2022-11-02T12:09:04.102Z,13.70
2022-11-02T12:11:41.367Z,13.80
2022-11-02T12:14:14.545Z,13.90
2022-11-02T12:16:53.035Z,14.20
2022-11-02T12:19:29.765Z,14.40
2022-11-02T12:22:07.932Z,14.80
2022-11-02T12:24:50.240Z,15.00
2022-11-02T12:27:25.491Z,15.20
2022-11-02T12:30:12.056Z,15.50
2022-11-02T12:32:57.629Z,15.60
2022-11-02T12:35:30.123Z,15.90
2022-11-02T12:38:13.376Z,15.90
2022-11-02T12:40:47.564Z,15.90
2022-11-02T12:43:24.549Z,16.00
2022-11-02T12:45:56.328Z,16.10
2022-11-02T12:48:25.918Z,16.30
2022-11-02T12:50:59.517Z,16.40
2022-11-02T12:53:41.885Z,16.50
2022-11-02T12:56:13.777Z,16.50
2022-11-02T12:58:42.022Z,16.70
2022-11-02T13:01:13.982Z,17.00
2022-11-02T13:03:48.479Z,17.10
2022-11-02T13:06:18.436Z,17.30
2022-11-02T13:08:50.133Z,17.30
2022-11-02T13:11:20.352Z,17.50
2022-11-02T13:13:50.716Z,17.30
2022-11-02T13:16:19.702Z,17.20
2022-11-02T13:18:49.317Z,16.70
2022-11-02T13:21:19.603Z,16.20
2022-11-02T13:23:51.570Z,16.00
2022-11-02T13:26:25.140Z,15.90
2022-11-02T13:28:54.809Z,15.70
2022-11-02T13:31:26.583Z,15.60
2022-11-02T13:33:55.300Z,15.50
2022-11-02T13:36:23.775Z,15.40
2022-11-02T13:38:57.520Z,15.50
2022-11-02T13:41:33.739Z,15.50
2022-11-02T13:44:09.405Z,15.40
2022-11-02T13:46:47.753Z,15.30
2022-11-02T13:49:16.923Z,15.20
2022-11-02T13:51:47.123Z,15.10
2022-11-02T13:54:20.014Z,15.10
2022-11-02T13:56:48.710Z,15.10
2022-11-02T13:59:21.066Z,15.00
2022-11-02T14:01:49.802Z,15.10
2022-11-02T14:04:17.969Z,15.40
2022-11-02T14:06:49.036Z,15.70
2022-11-02T14:09:25.211Z,15.90
2022-11-02T14:11:53.558Z,15.90
2022-11-02T14:14:23.387Z,15.90
2022-11-02T14:17:11.014Z,15.70
2022-11-02T14:19:55.536Z,15.60
2022-11-02T14:22:24.005Z,15.30
2022-11-02T14:24:57.049Z,15.60
2022-11-02T14:27:29.379Z,15.00
2022-11-02T14:29:58.020Z,14.80
2022-11-02T14:32:34.820Z,14.70
2022-11-02T14:35:17.874Z,14.80
2022-11-02T14:38:04.861Z,15.00
2022-11-02T14:40:41.948Z,15.30
2022-11-02T14:43:34.298Z,15.50
2022-11-02T14:46:09.374Z,15.70
2022-11-02T14:48:45.199Z,15.90
2022-11-02T14:51:16.633Z,16.10
2022-11-02T14:53:44.631Z,16.10
2022-11-02T14:56:19.970Z,16.10
2022-11-02T14:58:53.125Z,16.20
2022-11-02T15:01:21.238Z,16.10
2022-11-02T15:03:49.776Z,16.10
2022-11-02T15:06:19.702Z,16.10
2022-11-02T15:08:52.122Z,16.00
2022-11-02T15:11:38.731Z,16.00
2022-11-02T15:14:21.549Z,15.90
2022-11-02T15:16:50.798Z,15.80
2022-11-02T15:19:38.452Z,15.60
2022-11-02T15:22:36.648Z,15.50
2022-11-02T15:25:06.775Z,15.30
2022-11-02T15:27:35.385Z,15.10
2022-11-02T15:30:06.129Z,14.90
2022-11-02T15:32:39.050Z,14.80
2022-11-02T15:35:07.592Z,14.60
2022-11-02T15:37:50.344Z,14.50
2022-11-02T15:40:25.441Z,14.30
2022-11-02T15:42:57.894Z,14.30
2022-11-02T15:45:50.571Z,14.20
2022-11-02T15:48:29.836Z,14.20
2022-11-02T15:51:01.169Z,14.10
2022-11-02T15:53:36.818Z,14.00
2022-11-02T15:56:15.141Z,13.90
2022-11-02T15:58:48.627Z,13.80
2022-11-02T16:01:19.202Z,13.70
2022-11-02T16:03:53.038Z,13.60
2022-11-02T16:06:26.271Z,13.60
2022-11-02T16:08:54.361Z,13.40
2022-11-02T16:11:22.726Z,13.30
2022-11-02T16:14:08.519Z,13.20
2022-11-02T16:16:47.014Z,13.20
2022-11-02T16:19:21.228Z,13.10
2022-11-02T16:21:49.626Z,13.00
2022-11-02T16:24:34.998Z,13.00
2022-11-02T16:27:03.594Z,12.90
2022-11-02T16:29:32.504Z,12.80
2022-11-02T16:32:02.444Z,12.80
2022-11-02T16:34:32.262Z,12.70
2022-11-02T16:37:08.927Z,12.70
2022-11-02T16:39:41.909Z,12.60
2022-11-02T16:42:13.938Z,12.50
2022-11-02T16:44:43.176Z,12.50
2022-11-02T16:47:28.954Z,12.50
2022-11-02T16:50:01.291Z,12.40
2022-11-02T16:52:31.754Z,12.30
2022-11-02T16:55:00.048Z,12.30
2022-11-02T16:57:29.357Z,12.30
2022-11-02T16:59:58.520Z,12.20
2022-11-02T17:02:31.852Z,12.20
2022-11-02T17:05:05.891Z,12.20
2022-11-02T17:07:37.021Z,12.10
2022-11-02T17:10:06.041Z,12.10
2022-11-02T17:12:35.407Z,12.10
2022-11-02T17:15:04.929Z,12.00
2022-11-02T17:17:39.024Z,11.90
2022-11-02T17:20:16.209Z,11.90
2022-11-02T17:22:50.510Z,11.90
2022-11-02T17:25:21.297Z,11.90
2022-11-02T17:27:49.667Z,11.90
2022-11-02T17:30:36.146Z,11.80
2022-11-02T17:33:09.328Z,11.80
2022-11-02T17:35:45.510Z,11.80
2022-11-02T17:38:13.504Z,11.70
2022-11-02T17:40:41.607Z,11.70
2022-11-02T17:43:08.832Z,11.70
2022-11-02T17:45:38.321Z,11.60
2022-11-02T17:48:07.855Z,11.50
2022-11-02T17:50:36.694Z,11.50
2022-11-02T17:53:06.496Z,11.50
2022-11-02T17:55:35.242Z,11.50
2022-11-02T17:58:03.381Z,11.50
2022-11-02T18:00:31.530Z,11.40
2022-11-02T18:02:59.835Z,11.40
2022-11-02T18:05:28.503Z,11.30
2022-11-02T18:07:58.113Z,11.30
2022-11-02T18:10:29.257Z,11.30
2022-11-02T18:12:57.133Z,11.20
2022-11-02T18:15:25.914Z,11.20
2022-11-02T18:17:54.926Z,11.20
2022-11-02T18:20:23.827Z,11.10
2022-11-02T18:22:51.706Z,11.20
2022-11-02T18:27:50.230Z,11.10
2022-11-02T18:30:18.844Z,11.10
2022-11-02T18:32:47.315Z,11.10
2022-11-02T18:35:16.153Z,11.10
2022-11-02T18:37:44.241Z,11.10
2022-11-02T18:40:13.136Z,11.10
2022-11-02T18:42:41.546Z,11.10
2022-11-02T18:45:12.746Z,11.10
2022-11-02T18:47:41.842Z,11.00
2022-11-02T18:50:11.455Z,11.00
2022-11-02T18:52:39.460Z,11.00
2022-11-02T18:55:08.021Z,11.00
2022-11-02T18:57:45.250Z,11.00
2022-11-02T19:00:15.124Z,10.90
2022-11-02T19:02:43.123Z,10.90
2022-11-02T19:05:31.007Z,10.80
2022-11-02T19:08:17.713Z,10.90
2022-11-02T19:10:46.625Z,10.80
2022-11-02T19:13:14.538Z,10.80
2022-11-02T19:15:43.735Z,10.80
2022-11-02T19:18:11.840Z,10.80
2022-11-02T19:20:39.813Z,10.80
2022-11-02T19:23:08.510Z,10.80
2022-11-02T19:25:36.524Z,10.80
2022-11-02T19:28:05.506Z,10.70
2022-11-02T19:30:33.620Z,10.80
2022-11-02T19:33:03.420Z,10.80
2022-11-02T19:35:31.502Z,10.80
2022-11-02T19:37:59.663Z,10.70
2022-11-02T19:40:27.661Z,10.70
2022-11-02T19:42:55.823Z,10.70
2022-11-02T19:45:24.009Z,10.70
2022-11-02T19:47:51.947Z,10.70
2022-11-02T19:50:21.187Z,10.70
2022-11-02T19:52:49.753Z,10.70
2022-11-02T19:55:18.313Z,10.70
2022-11-02T19:57:46.277Z,10.70
2022-11-02T20:00:14.897Z,10.70
2022-11-02T20:02:43.066Z,10.70
2022-11-02T20:05:14.616Z,10.70
2022-11-02T20:07:44.123Z,10.70
2022-11-02T20:10:18.093Z,10.60
2022-11-02T20:12:46.006Z,10.60
2022-11-02T20:15:13.937Z,10.60
2022-11-02T20:17:58.536Z,10.60
2022-11-02T20:20:34.326Z,10.60
2022-11-02T20:23:03.715Z,10.60
2022-11-02T20:25:37.180Z,10.60
2022-11-02T20:28:05.547Z,10.60
2022-11-02T20:30:38.414Z,10.60
2022-11-02T20:33:09.228Z,10.60
2022-11-02T20:35:40.001Z,10.60
2022-11-02T20:38:13.336Z,10.30
2022-11-02T20:40:43.514Z,10.50
2022-11-02T20:43:13.919Z,10.60
2022-11-02T20:45:42.012Z,10.50
2022-11-02T20:48:10.093Z,10.50
2022-11-02T20:50:38.461Z,10.50
2022-11-02T20:53:06.578Z,10.50
2022-11-02T20:55:36.143Z,10.50
2022-11-02T20:58:04.250Z,10.50
2022-11-02T21:00:32.172Z,10.50
2022-11-02T21:03:03.131Z,10.50
2022-11-02T21:05:32.033Z,10.50
2022-11-02T21:07:59.979Z,10.50
2022-11-02T21:10:27.842Z,10.50
2022-11-02T21:13:14.987Z,10.50
2022-11-02T21:15:42.926Z,10.50
2022-11-02T21:18:10.804Z,10.50
2022-11-02T21:20:56.794Z,10.50
2022-11-02T21:23:24.750Z,10.50
2022-11-02T21:25:58.518Z,10.50
2022-11-02T21:28:29.663Z,10.50
2022-11-02T21:31:02.118Z,10.40
2022-11-02T21:33:30.250Z,10.40
2022-11-02T21:35:58.168Z,10.40
2022-11-02T21:38:26.787Z,10.40
2022-11-02T21:40:55.139Z,10.40
2022-11-02T21:43:23.068Z,10.40
2022-11-02T21:45:53.735Z,10.40
2022-11-02T21:48:21.848Z,10.40
2022-11-02T21:50:59.460Z,10.40
2022-11-02T21:53:27.443Z,10.40
2022-11-02T21:55:59.470Z,10.40
2022-11-02T21:58:27.515Z,10.40
2022-11-02T22:01:17.998Z,10.40
2022-11-02T22:03:46.306Z,10.40
2022-11-02T22:06:14.316Z,10.40
2022-11-02T22:08:42.672Z,10.40
2022-11-02T22:11:11.623Z,10.40
2022-11-02T22:13:39.907Z,10.40
2022-11-02T22:16:10.458Z,10.40
2022-11-02T22:18:38.423Z,10.40
2022-11-02T22:21:06.495Z,10.40
2022-11-02T22:23:43.292Z,10.30
2022-11-02T22:26:12.532Z,10.40
2022-11-02T22:28:41.456Z,10.30
2022-11-02T22:31:11.899Z,10.30
2022-11-02T22:33:40.003Z,10.30
2022-11-02T22:36:08.807Z,10.30
2022-11-02T22:38:51.589Z,10.30
2022-11-02T22:41:20.947Z,10.30
2022-11-02T22:43:49.354Z,10.30
2022-11-02T22:46:18.744Z,10.30
2022-11-02T22:48:46.873Z,10.30
2022-11-02T22:51:14.817Z,10.30
2022-11-02T22:53:42.738Z,10.30
2022-11-02T22:56:11.894Z,10.30
2022-11-02T22:58:40.382Z,10.30
2022-11-02T23:01:09.393Z,10.30
2022-11-02T23:03:38.780Z,10.30
2022-11-02T23:06:07.620Z,10.30
2022-11-02T23:08:36.061Z,10.20
2022-11-02T23:11:22.768Z,10.20
2022-11-02T23:13:52.423Z,10.20
2022-11-02T23:16:23.743Z,10.20
2022-11-02T23:19:14.748Z,10.20
2022-11-02T23:21:44.282Z,10.20
2022-11-02T23:24:30.392Z,10.20
2022-11-02T23:26:58.462Z,10.20
2022-11-02T23:29:44.005Z,10.10
2022-11-02T23:32:28.263Z,10.10
2022-11-02T23:35:15.823Z,10.10
2022-11-02T23:37:44.597Z,10.10
2022-11-02T23:40:13.417Z,10.10
2022-11-02T23:42:41.494Z,10.10
2022-11-02T23:45:10.253Z,10.10
2022-11-02T23:47:56.132Z,10.00
2022-11-02T23:50:43.536Z,10.00
2022-11-02T23:53:29.531Z,10.00
2022-11-02T23:56:15.051Z,10.00
2022-11-02T23:58:43.308Z,10.00
